createdAt,value
2023-10-06T00:01:12.439Z,4.18
2023-10-06T00:03:45.891Z,3.88
2023-10-06T00:06:23.224Z,4.47
2023-10-06T00:08:52.719Z,4.43
2023-10-06T00:11:29.751Z,4.15
2023-10-06T00:14:03.505Z,4.22
2023-10-06T00:16:40.360Z,4.78
2023-10-06T00:19:22.426Z,4.53
2023-10-06T00:22:02.482Z,4.15
2023-10-06T00:24:32.504Z,4.47
2023-10-06T00:27:01.129Z,4.75
2023-10-06T00:29:30.432Z,4.43
2023-10-06T00:32:19.587Z,4.65
2023-10-06T00:34:48.802Z,4.43
2023-10-06T00:37:17.528Z,4.45
2023-10-06T00:39:46.063Z,4.45
2023-10-06T00:42:15.729Z,4.28
2023-10-06T00:44:46.403Z,4.18
2023-10-06T00:47:16.964Z,4.82
2023-10-06T00:49:45.930Z,4.40
2023-10-06T00:52:16.679Z,4.43
2023-10-06T00:54:45.758Z,4.53
2023-10-06T00:57:19.139Z,4.47
2023-10-06T00:59:47.351Z,4.35
2023-10-06T01:02:18.112Z,4.60
2023-10-06T01:04:46.894Z,5.40
2023-10-06T01:07:17.996Z,4.45
2023-10-06T01:09:58.352Z,4.10
2023-10-06T01:12:27.317Z,4.32
2023-10-06T01:15:06.763Z,4.18
2023-10-06T01:17:36.179Z,4.80
2023-10-06T01:20:05.822Z,5.25
2023-10-06T01:22:43.084Z,4.38
2023-10-06T01:25:14.489Z,4.93
2023-10-06T01:27:44.940Z,5.00
2023-10-06T01:30:20.257Z,4.38
2023-10-06T01:32:52.613Z,4.43
2023-10-06T01:35:24.982Z,5.05
2023-10-06T01:37:59.826Z,4.47
2023-10-06T01:40:44.851Z,4.13
2023-10-06T01:43:16.214Z,4.55
2023-10-06T01:45:46.164Z,4.93
2023-10-06T01:48:24.453Z,5.10
2023-10-06T01:50:55.889Z,4.53
2023-10-06T01:53:33.387Z,4.60
2023-10-06T01:56:08.646Z,4.85
2023-10-06T01:58:40.708Z,4.65
2023-10-06T02:01:08.970Z,4.35
2023-10-06T02:03:42.889Z,3.60
2023-10-06T02:06:18.347Z,4.00
2023-10-06T02:08:53.645Z,3.95
2023-10-06T02:11:25.158Z,3.55
2023-10-06T02:13:53.101Z,3.58
2023-10-06T02:16:27.257Z,3.72
2023-10-06T02:18:56.172Z,3.97
2023-10-06T02:21:26.049Z,3.60
2023-10-06T02:24:00.375Z,3.95
2023-10-06T02:26:28.295Z,4.03
2023-10-06T02:28:57.131Z,3.60
2023-10-06T02:31:25.170Z,4.18
2023-10-06T02:33:53.267Z,3.70
2023-10-06T02:36:23.016Z,3.72
2023-10-06T02:38:51.455Z,3.67
2023-10-06T02:41:22.655Z,3.63
2023-10-06T02:43:51.391Z,3.78
2023-10-06T02:46:24.350Z,3.92
2023-10-06T02:48:52.688Z,3.95
2023-10-06T02:51:22.913Z,3.97
2023-10-06T02:53:52.282Z,3.00
2023-10-06T02:56:30.013Z,3.70
2023-10-06T02:59:08.034Z,3.70
2023-10-06T03:01:39.609Z,3.60
2023-10-06T03:04:09.279Z,3.58
2023-10-06T03:06:37.187Z,3.97
2023-10-06T03:09:08.771Z,3.42
2023-10-06T03:11:40.168Z,3.63
2023-10-06T03:14:08.984Z,4.30
2023-10-06T03:16:40.542Z,3.55
2023-10-06T03:19:13.550Z,4.05
2023-10-06T03:21:46.554Z,3.55
2023-10-06T03:24:32.113Z,3.35
2023-10-06T03:27:05.737Z,3.70
2023-10-06T03:29:46.042Z,3.58
2023-10-06T03:32:15.560Z,3.58
2023-10-06T03:34:45.106Z,3.80
2023-10-06T03:37:16.972Z,3.55
2023-10-06T03:39:51.823Z,4.05
2023-10-06T03:42:24.839Z,3.38
2023-10-06T03:45:05.941Z,3.63
2023-10-06T03:47:33.916Z,3.88
2023-10-06T03:50:02.018Z,3.60
2023-10-06T03:52:30.162Z,4.55
2023-10-06T03:54:59.767Z,4.32
2023-10-06T03:57:29.081Z,4.63
2023-10-06T03:59:56.956Z,4.03
2023-10-06T04:02:39.769Z,3.72
2023-10-06T04:05:08.612Z,4.25
2023-10-06T04:07:36.756Z,4.35
2023-10-06T04:10:13.147Z,3.95
2023-10-06T04:12:44.596Z,3.90
2023-10-06T04:15:15.772Z,4.05
2023-10-06T04:17:44.842Z,3.78
2023-10-06T04:20:15.597Z,4.00
2023-10-06T04:22:44.709Z,3.60
2023-10-06T04:25:13.046Z,3.35
2023-10-06T04:27:42.718Z,3.85
2023-10-06T04:30:14.608Z,3.75
2023-10-06T04:32:44.091Z,4.15
2023-10-06T04:35:20.681Z,4.10
2023-10-06T04:37:49.796Z,3.60
2023-10-06T04:40:21.243Z,3.38
2023-10-06T04:42:53.310Z,4.15
2023-10-06T04:45:21.301Z,4.80
2023-10-06T04:47:49.257Z,4.10
2023-10-06T04:50:17.512Z,4.22
2023-10-06T04:52:47.738Z,4.35
2023-10-06T04:55:16.244Z,4.50
2023-10-06T04:57:44.194Z,3.92
2023-10-06T05:00:20.534Z,4.00
2023-10-06T05:02:48.763Z,3.90
2023-10-06T05:05:27.247Z,4.60
2023-10-06T05:07:55.916Z,4.30
2023-10-06T05:10:26.677Z,4.63
2023-10-06T05:12:55.456Z,4.40
2023-10-06T05:15:27.438Z,4.47
2023-10-06T05:17:56.535Z,4.18
2023-10-06T05:20:30.721Z,3.72
2023-10-06T05:22:59.841Z,4.20
2023-10-06T05:25:30.558Z,4.30
2023-10-06T05:28:00.942Z,4.75
2023-10-06T05:30:30.722Z,4.68
2023-10-06T05:32:59.492Z,4.60
2023-10-06T05:35:27.518Z,4.82
2023-10-06T05:37:55.487Z,4.70
2023-10-06T05:40:23.532Z,5.05
2023-10-06T05:42:51.790Z,4.45
2023-10-06T05:45:21.062Z,4.43
2023-10-06T05:47:51.943Z,4.72
2023-10-06T05:50:29.026Z,4.93
2023-10-06T05:53:00.000Z,3.95
2023-10-06T05:55:31.642Z,4.63
2023-10-06T05:58:01.743Z,4.60
2023-10-06T06:00:32.184Z,5.38
2023-10-06T06:03:11.030Z,4.75
2023-10-06T06:05:39.911Z,4.28
2023-10-06T06:08:07.081Z,4.47
2023-10-06T06:10:36.193Z,4.85
2023-10-06T06:13:05.414Z,4.07
2023-10-06T06:15:33.830Z,4.53
2023-10-06T06:18:03.894Z,4.32
2023-10-06T06:20:31.934Z,4.43
2023-10-06T06:23:00.755Z,4.60
2023-10-06T06:25:28.786Z,4.68
2023-10-06T06:28:00.273Z,3.97
2023-10-06T06:30:28.489Z,4.53
2023-10-06T06:32:56.822Z,4.72
2023-10-06T06:35:26.512Z,4.28
2023-10-06T06:38:01.180Z,4.32
2023-10-06T06:40:29.931Z,4.38
2023-10-06T06:42:58.082Z,4.40
2023-10-06T06:45:26.460Z,4.45
2023-10-06T06:47:55.166Z,3.92
2023-10-06T06:50:23.842Z,4.20
2023-10-06T06:52:55.682Z,4.25
2023-10-06T06:55:24.499Z,4.15
2023-10-06T06:57:57.018Z,4.18
2023-10-06T07:00:25.800Z,4.50
2023-10-06T07:02:55.312Z,3.70
2023-10-06T07:05:24.431Z,4.05
2023-10-06T07:07:53.861Z,4.47
2023-10-06T07:10:24.082Z,4.47
2023-10-06T07:12:52.827Z,3.80
2023-10-06T07:15:21.476Z,4.28
2023-10-06T07:17:51.139Z,3.88
2023-10-06T07:20:20.882Z,4.55
2023-10-06T07:22:50.137Z,3.90
2023-10-06T07:25:19.575Z,4.22
2023-10-06T07:27:48.654Z,3.75
2023-10-06T07:30:17.968Z,4.20
2023-10-06T07:32:47.844Z,4.63
2023-10-06T07:35:19.057Z,4.18
2023-10-06T07:37:49.250Z,4.18
2023-10-06T07:40:22.323Z,4.03
2023-10-06T07:42:51.993Z,3.55
2023-10-06T07:45:23.549Z,3.90
2023-10-06T07:47:53.018Z,4.32
2023-10-06T07:50:21.095Z,3.53
2023-10-06T07:52:49.771Z,3.58
2023-10-06T07:55:22.476Z,4.30
2023-10-06T07:57:52.483Z,3.45
2023-10-06T08:00:28.828Z,4.10
2023-10-06T08:02:56.923Z,3.72
2023-10-06T08:05:27.095Z,4.07
2023-10-06T08:08:00.029Z,4.15
2023-10-06T08:10:31.556Z,4.47
2023-10-06T08:13:03.181Z,4.22
2023-10-06T08:15:33.601Z,4.05
2023-10-06T08:18:02.474Z,4.13
2023-10-06T08:20:32.228Z,4.38
2023-10-06T08:23:01.106Z,4.03
2023-10-06T08:25:35.250Z,3.85
2023-10-06T08:28:08.649Z,3.72
2023-10-06T08:30:38.606Z,4.57
2023-10-06T08:33:10.296Z,3.90
2023-10-06T08:35:41.610Z,4.45
2023-10-06T08:38:10.520Z,3.90
2023-10-06T08:40:44.315Z,3.72
2023-10-06T08:43:12.537Z,3.70
2023-10-06T08:45:43.065Z,4.13
2023-10-06T08:48:12.112Z,3.97
2023-10-06T08:50:43.096Z,3.88
2023-10-06T08:53:14.378Z,3.70
2023-10-06T08:55:45.517Z,3.65
2023-10-06T08:58:15.604Z,3.45
2023-10-06T09:00:44.795Z,3.70
2023-10-06T09:03:15.920Z,3.78
2023-10-06T09:05:44.248Z,4.13
2023-10-06T09:08:13.725Z,3.70
2023-10-06T09:10:44.710Z,4.68
2023-10-06T09:13:17.806Z,3.75
2023-10-06T09:15:57.667Z,3.70
2023-10-06T09:18:28.836Z,4.05
2023-10-06T09:21:13.338Z,4.20
2023-10-06T09:23:41.850Z,4.25
2023-10-06T09:26:13.745Z,4.13
2023-10-06T09:28:53.024Z,3.67
2023-10-06T09:31:36.335Z,3.90
2023-10-06T09:34:09.174Z,3.53
2023-10-06T09:36:44.970Z,3.38
2023-10-06T09:39:18.785Z,3.47
2023-10-06T09:41:50.114Z,3.60
2023-10-06T09:44:21.046Z,3.33
2023-10-06T09:46:54.438Z,3.42
2023-10-06T09:49:23.955Z,3.67
2023-10-06T09:51:53.764Z,3.78
2023-10-06T09:54:22.388Z,3.35
2023-10-06T09:56:56.317Z,4.13
2023-10-06T09:59:27.591Z,2.83
2023-10-06T10:01:58.535Z,3.22
2023-10-06T10:04:30.522Z,3.85
2023-10-06T10:06:59.153Z,3.20
2023-10-06T10:09:30.097Z,3.63
2023-10-06T10:12:10.675Z,3.17
2023-10-06T10:14:51.741Z,3.97
2023-10-06T10:17:26.491Z,3.47
2023-10-06T10:19:55.036Z,3.67
2023-10-06T10:22:22.973Z,3.65
2023-10-06T10:27:41.407Z,3.45
2023-10-06T10:30:10.996Z,3.50
2023-10-06T10:32:43.751Z,3.53
2023-10-06T10:35:14.984Z,3.72
2023-10-06T10:37:57.206Z,3.15
2023-10-06T10:40:26.541Z,3.15
2023-10-06T10:43:05.992Z,3.63
2023-10-06T10:45:39.795Z,3.00
2023-10-06T10:48:13.861Z,2.60
2023-10-06T10:50:58.481Z,2.97
2023-10-06T10:53:30.277Z,3.13
2023-10-06T10:56:01.356Z,3.28
2023-10-06T10:58:59.814Z,3.30
2023-10-06T11:01:31.228Z,3.35
2023-10-06T11:04:33.240Z,3.00
2023-10-06T11:07:11.335Z,2.85
2023-10-06T11:09:42.440Z,3.10
2023-10-06T11:12:26.847Z,3.45
2023-10-06T11:15:04.291Z,3.60
2023-10-06T11:17:34.216Z,3.28
2023-10-06T11:20:09.878Z,3.10
2023-10-06T11:22:38.334Z,3.20
2023-10-06T11:25:09.749Z,3.22
2023-10-06T11:27:40.415Z,3.17
2023-10-06T11:30:15.719Z,3.22
2023-10-06T11:32:44.039Z,3.03
2023-10-06T11:35:12.844Z,3.40
2023-10-06T11:37:42.038Z,3.65
2023-10-06T11:40:13.814Z,3.28
2023-10-06T11:42:42.797Z,3.60
2023-10-06T11:45:28.898Z,4.07
2023-10-06T11:47:57.296Z,3.60
2023-10-06T11:50:27.125Z,3.47
2023-10-06T11:52:56.495Z,3.30
2023-10-06T11:55:38.715Z,3.95
2023-10-06T11:58:07.464Z,3.45
2023-10-06T12:00:41.792Z,3.63
2023-10-06T12:03:12.707Z,2.92
2023-10-06T12:05:43.590Z,3.30
2023-10-06T12:08:13.475Z,3.95
2023-10-06T12:10:49.437Z,3.38
2023-10-06T12:13:17.440Z,3.85
2023-10-06T12:15:46.809Z,3.90
2023-10-06T12:18:14.902Z,3.58
2023-10-06T12:20:43.050Z,3.60
2023-10-06T12:23:11.762Z,4.15
2023-10-06T12:25:40.597Z,3.72
2023-10-06T12:28:08.629Z,3.80
2023-10-06T12:30:36.732Z,3.83
2023-10-06T12:33:06.235Z,3.75
2023-10-06T12:35:38.059Z,3.83
2023-10-06T12:38:07.897Z,4.03
2023-10-06T12:40:35.820Z,4.10
2023-10-06T12:43:03.831Z,4.07
2023-10-06T12:45:31.771Z,3.53
2023-10-06T12:48:03.349Z,4.35
2023-10-06T12:50:41.668Z,3.45
2023-10-06T12:53:11.357Z,3.55
2023-10-06T12:55:43.005Z,3.63
2023-10-06T12:58:15.931Z,4.43
2023-10-06T13:00:44.061Z,3.70
2023-10-06T13:03:17.071Z,3.50
2023-10-06T13:05:47.915Z,3.65
2023-10-06T13:08:18.339Z,3.75
2023-10-06T13:10:46.605Z,3.22
2023-10-06T13:13:17.342Z,3.78
2023-10-06T13:15:46.948Z,4.05
2023-10-06T13:18:17.402Z,3.95
2023-10-06T13:20:47.133Z,3.72
2023-10-06T13:23:15.474Z,4.03
2023-10-06T13:25:47.090Z,3.88
2023-10-06T13:28:18.299Z,3.60
2023-10-06T13:30:46.711Z,3.92
2023-10-06T13:33:15.901Z,3.67
2023-10-06T13:35:45.063Z,3.45
2023-10-06T13:38:14.760Z,4.00
2023-10-06T13:40:46.088Z,3.58
2023-10-06T13:43:14.621Z,4.10
2023-10-06T13:45:46.158Z,4.40
2023-10-06T13:48:16.947Z,3.42
2023-10-06T13:50:47.136Z,3.90
2023-10-06T13:53:17.402Z,3.97
2023-10-06T13:55:46.724Z,3.42
2023-10-06T13:58:14.716Z,3.70
2023-10-06T14:00:43.412Z,3.78
2023-10-06T14:03:15.108Z,3.80
2023-10-06T14:05:44.747Z,3.72
2023-10-06T14:08:15.149Z,3.28
2023-10-06T14:10:45.044Z,4.03
2023-10-06T14:13:18.137Z,3.65
2023-10-06T14:15:50.460Z,3.17
2023-10-06T14:18:21.103Z,3.70
2023-10-06T14:20:51.089Z,3.65
2023-10-06T14:23:25.131Z,3.30
2023-10-06T14:25:57.344Z,3.60
2023-10-06T14:28:25.491Z,3.30
2023-10-06T14:30:54.506Z,3.67
2023-10-06T14:33:30.044Z,3.03
2023-10-06T14:36:22.122Z,3.05
2023-10-06T14:39:07.565Z,3.55
2023-10-06T14:41:54.347Z,3.53
2023-10-06T14:44:39.965Z,3.35
2023-10-06T14:47:10.679Z,3.50
2023-10-06T14:49:43.540Z,3.63
2023-10-06T14:52:11.739Z,4.03
2023-10-06T14:54:39.926Z,3.42
2023-10-06T14:57:09.355Z,3.22
2023-10-06T14:59:38.441Z,3.10
2023-10-06T15:02:11.167Z,3.38
2023-10-06T15:04:41.431Z,3.72
2023-10-06T15:07:15.731Z,3.72
2023-10-06T15:09:45.209Z,3.50
2023-10-06T15:12:16.077Z,3.22
2023-10-06T15:14:45.569Z,3.35
2023-10-06T15:17:15.685Z,2.95
2023-10-06T15:19:47.476Z,3.00
2023-10-06T15:22:15.926Z,3.08
2023-10-06T15:24:43.937Z,3.00
2023-10-06T15:27:11.860Z,2.97
2023-10-06T15:29:43.007Z,2.75
2023-10-06T15:32:12.943Z,2.95
2023-10-06T15:34:41.365Z,2.88
2023-10-06T15:37:09.356Z,3.40
2023-10-06T15:39:37.709Z,3.05
2023-10-06T15:42:06.086Z,3.08
2023-10-06T15:44:34.242Z,2.70
2023-10-06T15:47:03.749Z,2.80
2023-10-06T15:49:33.534Z,2.72
2023-10-06T15:52:01.697Z,3.05
2023-10-06T15:54:29.637Z,2.67
2023-10-06T15:56:58.586Z,2.60
2023-10-06T15:59:30.702Z,2.88
2023-10-06T16:02:00.623Z,2.83
2023-10-06T16:04:30.203Z,3.35
2023-10-06T16:06:59.944Z,3.15
2023-10-06T16:09:28.329Z,3.00
2023-10-06T16:11:58.417Z,2.80
2023-10-06T16:14:26.965Z,3.30
2023-10-06T16:16:57.110Z,3.40
2023-10-06T16:19:25.399Z,3.30
2023-10-06T16:21:56.313Z,3.33
2023-10-06T16:24:24.341Z,3.25
2023-10-06T16:26:52.290Z,3.22
2023-10-06T16:29:22.638Z,3.55
2023-10-06T16:31:51.079Z,3.53
2023-10-06T16:34:20.145Z,2.83
2023-10-06T16:36:48.862Z,2.85
2023-10-06T16:39:22.473Z,3.17
2023-10-06T16:41:54.701Z,2.90
2023-10-06T16:44:23.675Z,3.08
2023-10-06T16:46:56.410Z,3.20
2023-10-06T16:49:24.545Z,3.30
2023-10-06T16:51:52.644Z,3.35
2023-10-06T16:54:22.486Z,3.47
2023-10-06T16:56:50.458Z,3.22
2023-10-06T16:59:18.466Z,3.00
2023-10-06T17:01:46.544Z,3.63
2023-10-06T17:04:16.665Z,3.35
2023-10-06T17:06:46.840Z,3.42
2023-10-06T17:09:19.812Z,3.45
2023-10-06T17:11:51.579Z,2.78
2023-10-06T17:14:19.660Z,3.20
2023-10-06T17:16:48.257Z,3.00
2023-10-06T17:19:17.442Z,3.33
2023-10-06T17:21:45.743Z,3.35
2023-10-06T17:24:14.331Z,3.15
2023-10-06T17:26:43.704Z,3.30
2023-10-06T17:29:13.791Z,3.53
2023-10-06T17:31:42.096Z,3.47
2023-10-06T17:34:10.199Z,3.58
2023-10-06T17:36:39.618Z,3.60
2023-10-06T17:39:08.044Z,3.20
2023-10-06T17:41:36.204Z,3.90
2023-10-06T17:44:04.989Z,3.88
2023-10-06T17:46:34.431Z,4.03
2023-10-06T17:49:02.493Z,3.10
2023-10-06T17:51:30.529Z,4.10
2023-10-06T17:53:58.458Z,4.07
2023-10-06T17:56:26.437Z,3.88
2023-10-06T17:58:54.646Z,3.78
2023-10-06T18:01:23.335Z,3.92
2023-10-06T18:03:54.315Z,3.50
2023-10-06T18:06:22.573Z,4.15
2023-10-06T18:08:50.561Z,3.58
2023-10-06T18:11:18.560Z,3.75
2023-10-06T18:13:47.413Z,3.63
2023-10-06T18:16:15.762Z,3.78
2023-10-06T18:18:43.980Z,4.13
2023-10-06T18:21:14.461Z,3.35
2023-10-06T18:23:43.301Z,3.72
2023-10-06T18:26:15.342Z,3.10
2023-10-06T18:28:43.449Z,4.03
2023-10-06T18:31:11.578Z,3.47
2023-10-06T18:33:39.743Z,3.83
2023-10-06T18:36:11.257Z,3.95
2023-10-06T18:38:41.088Z,4.25
2023-10-06T18:41:13.514Z,3.55
2023-10-06T18:43:42.700Z,3.67
2023-10-06T18:46:11.790Z,3.92
2023-10-06T18:48:39.946Z,3.22
2023-10-06T18:51:08.013Z,3.20
2023-10-06T18:53:36.121Z,3.00
2023-10-06T18:56:07.246Z,2.90
2023-10-06T18:58:37.421Z,3.00
2023-10-06T19:01:05.850Z,3.30
2023-10-06T19:03:35.571Z,3.22
2023-10-06T19:06:05.210Z,2.60
2023-10-06T19:08:36.611Z,2.63
2023-10-06T19:11:10.792Z,2.50
2023-10-06T19:13:39.318Z,2.35
2023-10-06T19:16:11.053Z,2.50
2023-10-06T19:18:39.908Z,2.35
2023-10-06T19:21:07.908Z,2.70
2023-10-06T19:23:36.220Z,2.40
2023-10-06T19:26:04.791Z,2.67
2023-10-06T19:28:34.354Z,3.00
2023-10-06T19:31:02.469Z,2.50
2023-10-06T19:33:30.516Z,2.13
2023-10-06T19:35:58.648Z,2.00
2023-10-06T19:38:26.989Z,1.98
2023-10-06T19:40:54.995Z,2.30
2023-10-06T19:43:23.040Z,2.38
2023-10-06T19:45:53.057Z,2.03
2023-10-06T19:48:21.567Z,2.60
2023-10-06T19:50:49.717Z,2.53
2023-10-06T19:53:18.229Z,2.42
2023-10-06T19:55:47.012Z,2.45
2023-10-06T19:58:15.305Z,2.17
2023-10-06T20:00:44.899Z,2.88
2023-10-06T20:03:14.497Z,2.63
2023-10-06T20:05:42.646Z,2.80
2023-10-06T20:08:10.840Z,2.95
2023-10-06T20:10:39.063Z,2.90
2023-10-06T20:13:08.513Z,2.92
2023-10-06T20:15:37.613Z,2.53
2023-10-06T20:18:07.611Z,2.78
2023-10-06T20:20:37.017Z,2.83
2023-10-06T20:23:05.789Z,2.40
2023-10-06T20:25:34.130Z,2.20
2023-10-06T20:28:04.036Z,2.95
2023-10-06T20:30:32.257Z,2.13
2023-10-06T20:33:00.854Z,2.80
2023-10-06T20:35:29.015Z,2.83
2023-10-06T20:37:59.596Z,2.70
2023-10-06T20:40:29.477Z,2.55
2023-10-06T20:42:58.810Z,2.50
2023-10-06T20:45:28.057Z,2.70
2023-10-06T20:47:56.391Z,2.58
2023-10-06T20:50:24.761Z,2.80
2023-10-06T20:52:54.439Z,2.70
2023-10-06T20:55:25.255Z,2.70
2023-10-06T20:57:55.024Z,2.30
2023-10-06T21:00:24.128Z,2.22
2023-10-06T21:02:52.531Z,3.05
2023-10-06T21:05:21.128Z,2.70
2023-10-06T21:07:49.720Z,2.70
2023-10-06T21:10:18.666Z,2.90
2023-10-06T21:12:48.519Z,2.85
2023-10-06T21:15:17.585Z,3.03
2023-10-06T21:17:48.620Z,3.00
2023-10-06T21:20:17.443Z,3.03
2023-10-06T21:22:45.678Z,2.45
2023-10-06T21:25:15.144Z,2.47
2023-10-06T21:27:43.737Z,2.90
2023-10-06T21:30:17.298Z,3.50
2023-10-06T21:32:46.780Z,2.60
2023-10-06T21:35:17.939Z,2.72
2023-10-06T21:37:46.602Z,2.85
2023-10-06T21:40:14.586Z,3.13
2023-10-06T21:42:42.833Z,3.03
2023-10-06T21:45:11.793Z,2.97
2023-10-06T21:47:41.336Z,2.60
2023-10-06T21:50:10.808Z,2.88
2023-10-06T21:52:41.817Z,3.08
2023-10-06T21:55:12.116Z,3.05
2023-10-06T21:57:40.717Z,2.70
2023-10-06T22:00:26.442Z,3.47
2023-10-06T22:02:56.996Z,3.40
2023-10-06T22:05:25.505Z,2.90
2023-10-06T22:07:53.773Z,3.63
2023-10-06T22:10:22.662Z,3.63
2023-10-06T22:12:52.343Z,3.47
2023-10-06T22:15:21.025Z,3.53
2023-10-06T22:17:49.271Z,3.25
2023-10-06T22:20:18.701Z,3.47
2023-10-06T22:22:49.980Z,3.28
2023-10-06T22:25:18.334Z,3.75
2023-10-06T22:27:46.592Z,3.03
2023-10-06T22:30:15.830Z,4.00
2023-10-06T22:32:44.034Z,3.40
2023-10-06T22:35:12.328Z,3.38
2023-10-06T22:37:41.872Z,3.25
2023-10-06T22:40:18.310Z,3.38
2023-10-06T22:42:49.524Z,3.70
2023-10-06T22:45:19.979Z,3.75
2023-10-06T22:47:50.030Z,3.50
2023-10-06T22:50:22.379Z,3.22
2023-10-06T22:52:52.141Z,3.40
2023-10-06T22:55:20.875Z,3.92
2023-10-06T22:57:50.062Z,4.03
2023-10-06T23:00:19.328Z,3.72
2023-10-06T23:02:49.255Z,4.05
2023-10-06T23:05:17.761Z,3.92
2023-10-06T23:07:48.365Z,4.43
2023-10-06T23:10:19.119Z,3.95
2023-10-06T23:12:50.671Z,4.13
2023-10-06T23:15:19.490Z,4.05
2023-10-06T23:17:48.137Z,4.10
2023-10-06T23:20:25.119Z,4.32
2023-10-06T23:22:59.531Z,3.80
2023-10-06T23:25:37.741Z,3.38
2023-10-06T23:28:08.306Z,4.20
2023-10-06T23:30:38.097Z,4.00
2023-10-06T23:33:06.922Z,4.00
2023-10-06T23:35:35.359Z,4.00
2023-10-06T23:38:07.855Z,3.60
2023-10-06T23:40:39.700Z,4.10
2023-10-06T23:43:10.689Z,3.70
2023-10-06T23:45:39.100Z,3.42
2023-10-06T23:48:12.847Z,4.60
2023-10-06T23:50:52.640Z,3.63
2023-10-06T23:53:28.894Z,4.13
2023-10-06T23:56:02.202Z,3.88
2023-10-06T23:58:34.698Z,4.10
